Terminal Aerodrome Forecast
Issued by NWS Grand Junction, CO

Home | Current Version | Previous Version | Text Only | Print | Product List | Glossary On
Versions: 1 2 3 4 5 6 7 8 9 10 11 12 13 14 15 16 17 18 19 20 21 22 23 24 25 26 27 28 29 30 31 32 33 34 35 36 37 38
000
FTUS45 KGJT 051833 CCA
TAFGJT
TAF COR
KGJT 051833Z 0519/0618 32008KT P6SM -RA BKN040
     FM052300 30006KT P6SM VCSH SCT060 BKN080
     FM060200 10010G16KT P6SM VCSH BKN060
     FM060600 10004KT P6SM -RA OVC050=

USA.gov is the U.S. government's official web portal to all federal, state and local government web resources and services.